.
WxDataArchive / Data Records for 2012-07-12
2012-07-11 July 2012 2012-07-13

Data Records for Thursday, 12 July 2012

Time	Temp	Chill	HIndex	Humid	Dewpt	 Wind 	HiWind	WindDir	Rain 	Barom 
-----	----	-----	------	-----	-----	------	------	-------	-----	----- 
00:00	71.5	71.5	71.5	45	49.0	0	2	90	0.00	30.089 
00:05	71.1	71.1	71.1	45	48.7	1	3	90	0.00	30.089 
00:10	70.9	70.9	70.9	46	49.1	1	2	90	0.00	30.089 
00:15	70.8	70.8	70.8	46	49.0	0	1	90	0.00	30.091 
00:20	70.6	70.6	70.6	47	49.4	0	0	---	0.00	30.091 
00:25	70.3	70.3	70.3	47	49.1	0	0	---	0.00	30.091 
00:30	69.9	69.9	69.9	48	49.3	0	1	90	0.00	30.089 
00:35	69.4	69.4	69.4	49	49.4	0	0	---	0.00	30.089 
00:40	69.1	69.1	69.1	50	49.7	0	0	---	0.00	30.089 
00:45	68.6	68.6	68.6	50	49.2	0	0	---	0.00	30.093 
00:50	68.3	68.3	68.3	51	49.5	0	0	---	0.00	30.093 
00:55	67.9	67.9	67.9	52	49.6	0	0	---	0.00	30.093 
01:00	67.6	67.6	67.6	52	49.3	0	0	---	0.00	30.092 
01:05	67.3	67.3	67.3	53	49.6	0	0	---	0.00	30.092 
01:10	66.9	66.9	66.9	54	49.7	0	0	---	0.00	30.092 
01:15	66.6	66.6	66.6	54	49.4	0	0	---	0.00	30.090 
01:20	66.3	66.3	66.3	54	49.1	0	0	---	0.00	30.090 
01:25	66.1	66.1	66.1	55	49.5	0	0	---	0.00	30.090 
01:30	65.8	65.8	65.8	56	49.7	0	0	---	0.00	30.088 
01:35	65.6	65.6	65.6	56	49.5	0	0	---	0.00	30.088 
01:40	65.3	65.3	65.3	57	49.7	0	0	---	0.00	30.088 
01:45	65.2	65.2	65.2	58	50.0	0	0	---	0.00	30.088 
01:50	64.8	64.8	64.8	58	49.7	0	0	---	0.00	30.088 
01:55	64.5	64.5	64.5	59	49.8	0	0	---	0.00	30.088 
02:00	64.3	64.3	64.3	59	49.7	0	0	---	0.00	30.085 
02:05	64.2	64.2	64.2	60	50.0	0	0	---	0.00	30.085 
02:10	64.0	64.0	64.0	61	50.3	0	0	---	0.00	30.085 
02:15	63.9	63.9	63.9	62	50.6	0	0	---	0.00	30.086 
02:20	63.7	63.7	63.7	62	50.4	0	0	---	0.00	30.086 
02:25	63.5	63.5	63.5	62	50.2	0	0	---	0.00	30.086 
02:30	63.5	63.5	63.5	63	50.7	0	0	---	0.00	30.086 
02:35	63.4	63.4	63.4	63	50.6	0	0	---	0.00	30.086 
02:40	63.2	63.2	63.2	63	50.4	0	0	---	0.00	30.086 
02:45	63.2	63.2	63.2	63	50.4	0	1	90	0.00	30.084 
02:50	63.2	63.2	63.2	63	50.4	0	1	90	0.00	30.084 
02:55	63.2	63.2	63.2	63	50.4	0	1	90	0.00	30.084 
03:00	63.5	63.5	63.5	62	50.2	0	1	90	0.00	30.077 
03:05	63.9	63.9	63.9	61	50.2	0	1	90	0.00	30.077 
03:10	64.0	64.0	64.0	61	50.3	0	0	---	0.00	30.077 
03:15	64.0	64.0	64.0	61	50.3	0	0	---	0.00	30.078 
03:20	63.9	63.9	63.9	62	50.6	0	0	---	0.00	30.078 
03:25	63.9	63.9	63.9	62	50.6	0	0	---	0.00	30.078 
03:30	63.5	63.5	63.5	62	50.2	0	0	---	0.00	30.078 
03:35	63.4	63.4	63.4	63	50.6	0	0	---	0.00	30.078 
03:40	63.1	63.1	63.1	64	50.7	0	0	---	0.00	30.078 
03:45	62.9	62.9	62.9	64	50.5	0	0	---	0.00	30.078 
03:50	62.6	62.6	62.6	65	50.7	0	0	---	0.00	30.078 
03:55	62.4	62.4	62.4	65	50.5	0	0	---	0.00	30.078 
04:00	62.1	62.1	62.1	66	50.6	0	0	---	0.00	30.082 
04:05	62.0	62.0	62.0	67	50.9	0	0	---	0.00	30.082 
04:10	61.8	61.8	61.8	67	50.7	0	0	---	0.00	30.082 
04:15	61.6	61.6	61.6	68	50.9	0	0	---	0.00	30.083 
04:20	61.5	61.5	61.5	68	50.8	0	0	---	0.00	30.083 
04:25	61.3	61.3	61.3	68	50.6	0	0	---	0.00	30.083 
04:30	61.3	61.3	61.3	69	51.0	0	0	---	0.00	30.088 
04:35	61.3	61.3	61.3	69	51.0	0	0	---	0.00	30.088 
04:40	61.3	61.3	61.3	69	51.0	0	0	---	0.00	30.088 
04:45	61.2	61.2	61.2	69	50.9	0	0	---	0.00	30.087 
04:50	61.2	61.2	61.2	69	50.9	0	0	---	0.00	30.087 
04:55	61.2	61.2	61.2	69	50.9	0	0	---	0.00	30.087 
05:00	61.2	61.2	61.2	70	51.3	0	0	---	0.00	30.085 
05:05	61.0	61.0	61.0	70	51.1	0	0	---	0.00	30.085 
05:10	61.0	61.0	61.0	70	51.1	0	0	---	0.00	30.085 
05:15	61.0	61.0	61.0	70	51.1	0	1	90	0.00	30.089 
05:20	61.3	61.3	61.3	69	51.0	0	1	90	0.00	30.089 
05:25	61.5	61.5	61.5	68	50.8	0	0	---	0.00	30.089 
05:30	61.6	61.6	61.6	68	50.9	0	0	---	0.00	30.084 
05:35	61.6	61.6	61.6	68	50.9	0	0	---	0.00	30.084 
05:40	61.6	61.6	61.6	69	51.3	0	0	---	0.00	30.084 
05:45	61.5	61.5	61.5	69	51.2	0	0	---	0.00	30.085 
05:50	61.3	61.3	61.3	69	51.0	0	0	---	0.00	30.085 
05:55	61.2	61.2	61.2	69	50.9	0	0	---	0.00	30.085 
06:00	61.0	61.0	61.0	69	50.8	0	0	---	0.00	30.088 
06:05	60.9	60.9	60.9	70	51.0	0	0	---	0.00	30.088 
06:10	60.9	60.9	60.9	70	51.0	0	0	---	0.00	30.088 
06:15	60.7	60.7	60.7	70	50.9	0	0	---	0.00	30.091 
06:20	60.7	60.7	60.7	70	50.9	0	0	---	0.00	30.091 
06:25	60.7	60.7	60.7	71	51.2	0	0	---	0.00	30.091 
06:30	60.7	60.7	60.7	71	51.2	0	0	---	0.00	30.093 
06:35	60.7	60.7	60.7	71	51.2	0	0	---	0.00	30.093 
06:40	60.7	60.7	60.7	71	51.2	0	0	---	0.00	30.093 
06:45	60.9	60.9	60.9	72	51.8	0	0	---	0.00	30.093 
06:50	61.3	61.3	61.3	70	51.4	0	3	90	0.00	30.093 
06:55	62.0	62.0	62.0	69	51.7	0	1	90	0.00	30.093 
07:00	62.3	62.3	62.3	69	52.0	0	0	---	0.00	30.093 
07:05	62.4	62.4	62.4	69	52.1	0	0	---	0.00	30.093 
07:10	62.7	62.7	62.7	69	52.4	0	1	202	0.00	30.093 
07:15	63.1	63.1	63.1	67	52.0	0	1	202	0.00	30.092 
07:20	63.9	63.9	63.9	66	52.3	0	2	202	0.00	30.092 
07:25	64.8	64.8	64.8	63	51.9	1	3	202	0.00	30.092 
07:30	66.0	66.0	66.0	60	51.7	1	4	135	0.00	30.093 
07:35	66.9	66.9	66.9	58	51.6	1	2	135	0.00	30.093 
07:40	67.6	67.6	67.6	58	52.3	1	3	135	0.00	30.093 
07:45	68.3	68.3	68.3	57	52.5	2	4	90	0.00	30.090 
07:50	68.8	68.8	68.8	57	52.9	1	3	90	0.00	30.090 
07:55	69.4	69.4	69.4	56	53.0	1	5	90	0.00	30.090 
08:00	69.9	69.9	69.9	55	53.0	2	4	90	0.00	30.094 
08:05	70.3	70.3	70.3	55	53.4	2	5	90	0.00	30.094 
08:10	70.6	70.6	70.6	55	53.6	2	5	90	0.00	30.094 
08:15	71.1	71.1	71.1	54	53.6	1	6	90	0.00	30.101 
08:20	71.8	71.8	71.8	54	54.2	1	4	90	0.00	30.101 
08:25	72.3	72.3	72.3	53	54.2	2	4	90	0.00	30.101 
08:30	72.8	72.8	72.8	53	54.7	1	4	90	0.00	30.104 
08:35	73.5	73.5	73.5	51	54.2	2	5	90	0.00	30.104 
08:40	73.7	73.7	73.7	52	55.0	2	4	90	0.00	30.104 
08:45	74.2	74.2	74.2	51	54.9	2	5	90	0.00	30.102 
08:50	74.7	74.7	74.7	51	55.4	2	4	90	0.00	30.102 
08:55	75.1	75.1	77.7	51	55.7	3	6	68	0.00	30.102 
09:00	75.3	75.3	77.7	50	55.4	3	5	68	0.00	30.104 
09:05	75.4	75.4	77.8	51	56.0	1	4	90	0.00	30.104 
09:10	76.3	76.3	78.2	49	55.7	2	5	90	0.00	30.104 
09:15	76.3	76.3	78.2	49	55.7	3	6	68	0.00	30.111 
09:20	76.5	76.5	78.3	50	56.5	3	6	68	0.00	30.111 
09:25	76.7	76.7	78.4	49	56.1	2	4	90	0.00	30.111 
09:30	77.0	77.0	78.6	49	56.4	2	6	90	0.00	30.113 
09:35	77.7	77.7	79.0	49	57.0	2	5	90	0.00	30.113 
09:40	78.1	78.1	79.2	48	56.8	2	4	90	0.00	30.113 
09:45	78.5	78.5	79.4	47	56.6	2	5	90	0.00	30.109 
09:50	78.6	78.6	79.5	47	56.7	3	6	112	0.00	30.109 
09:55	78.6	78.6	79.5	48	57.2	3	6	90	0.00	30.109 
10:00	79.2	79.2	79.9	47	57.2	1	4	90	0.00	30.108 
10:05	79.6	79.6	80.2	47	57.6	2	5	90	0.00	30.108 
10:10	79.8	79.8	80.3	46	57.2	2	5	112	0.00	30.108 
10:15	79.8	79.8	80.3	46	57.2	2	5	112	0.00	30.104 
10:20	80.1	80.1	80.5	46	57.4	1	4	90	0.00	30.104 
10:25	80.3	80.3	80.5	44	56.4	2	5	90	0.00	30.104 
10:30	80.5	80.5	80.6	44	56.6	1	4	90	0.00	30.102 
10:35	81.1	81.1	81.0	43	56.5	1	4	90	0.00	30.102 
10:40	81.2	81.2	81.1	43	56.5	2	4	90	0.00	30.102 
10:45	82.0	82.0	81.3	39	54.6	1	3	90	0.00	30.103 
10:50	82.6	82.6	81.7	38	54.4	2	4	90	0.00	30.103 
10:55	83.0	83.0	81.6	34	51.7	1	4	90	0.00	30.103 
11:00	83.4	83.4	82.1	35	52.8	1	6	90	0.00	30.102 
11:05	83.4	83.4	82.2	36	53.6	2	5	90	0.00	30.102 
11:10	83.4	83.4	81.6	31	49.6	2	5	90	0.00	30.102 
11:15	83.8	83.8	82.2	33	51.6	1	3	90	0.00	30.104 
11:20	84.1	84.1	82.3	32	51.0	2	5	68	0.00	30.104 
11:25	84.1	84.1	82.4	33	51.9	2	4	112	0.00	30.104 
11:30	84.0	84.0	82.5	34	52.6	1	3	112	0.00	30.104 
11:35	84.1	84.1	82.5	34	52.7	1	3	112	0.00	30.104 
11:40	84.5	84.5	82.6	32	51.4	2	9	112	0.00	30.104 
11:45	84.7	84.7	83.0	33	52.4	1	4	90	0.00	30.103 
11:50	84.9	84.9	82.9	31	50.9	0	2	112	0.00	30.103 
11:55	85.5	85.5	83.3	30	50.5	1	3	112	0.00	30.103 
12:00	86.1	86.1	83.7	29	50.1	1	3	112	0.00	30.101 
12:05	86.1	86.1	83.6	28	49.1	0	2	112	0.00	30.101 
12:10	85.9	85.9	83.5	29	49.9	1	4	112	0.00	30.101 
12:15	85.5	85.5	83.2	29	49.6	1	3	0	0.00	30.099 
12:20	85.5	85.5	83.3	30	50.5	1	5	338	0.00	30.099 
12:25	86.1	86.1	83.7	29	50.1	2	6	90	0.00	30.099 
12:30	86.7	86.7	84.3	29	50.6	1	3	90	0.00	30.091 
12:35	86.7	86.7	84.3	29	50.6	1	4	270	0.00	30.091 
12:40	87.2	87.2	84.6	28	50.1	1	4	270	0.00	30.091 
12:45	87.8	87.8	85.5	30	52.5	1	4	112	0.00	30.093 
12:50	88.0	88.0	85.3	27	49.8	3	7	90	0.00	30.093 
12:55	88.0	88.0	85.3	27	49.8	2	5	112	0.00	30.093 
13:00	87.2	87.2	84.5	27	49.1	2	5	292	0.00	30.088 
13:05	87.6	87.6	85.2	29	51.4	1	4	292	0.00	30.088 
13:10	88.2	88.2	85.5	27	50.0	2	4	90	0.00	30.088 
13:15	88.4	88.4	86.1	30	53.0	1	4	135	0.00	30.089 
13:20	88.6	88.6	85.9	27	50.3	1	5	45	0.00	30.089 
13:25	88.2	88.2	85.3	26	48.9	2	5	90	0.00	30.089 
13:30	87.8	87.8	85.1	27	49.6	1	4	0	0.00	30.088 
13:35	87.8	87.8	85.1	27	49.6	1	3	0	0.00	30.088 
13:40	88.4	88.4	85.4	25	48.1	1	3	135	0.00	30.088 
13:45	88.6	88.6	85.6	25	48.2	1	3	292	0.00	30.086 
13:50	88.6	88.6	85.3	23	46.0	1	5	292	0.00	30.086 
13:55	88.6	88.6	85.5	24	47.1	1	5	270	0.00	30.086 
14:00	88.8	88.8	85.8	25	48.4	1	5	90	0.00	30.082 
14:05	89.0	89.0	85.7	23	46.4	1	2	45	0.00	30.082 
14:10	88.8	88.8	85.5	23	46.2	1	9	292	0.00	30.082 
14:15	89.0	89.0	85.7	23	46.4	1	3	292	0.00	30.077 
14:20	89.5	89.5	86.1	22	45.6	1	3	292	0.00	30.077 
14:25	89.9	89.9	86.5	22	45.9	1	3	292	0.00	30.077 
14:30	90.1	90.1	86.7	22	46.1	1	3	292	0.00	30.072 
14:35	90.3	90.3	87.0	23	47.4	1	4	112	0.00	30.072 
14:40	90.7	90.7	87.4	23	47.8	2	5	68	0.00	30.072 
14:45	90.5	90.5	87.2	23	47.6	1	4	292	0.00	30.070 
14:50	89.9	89.9	86.6	23	47.1	1	3	315	0.00	30.070 
14:55	90.1	90.1	86.8	23	47.3	1	4	315	0.00	30.070 
15:00	90.1	90.1	86.8	23	47.3	1	4	315	0.00	30.066 
15:05	90.3	90.3	86.7	21	45.0	1	3	315	0.00	30.066 
15:10	90.1	90.1	86.7	22	46.1	1	3	315	0.00	30.066 
15:15	90.7	90.7	87.1	21	45.4	0	2	315	0.00	30.061 
15:20	90.3	90.3	86.7	21	45.0	1	3	315	0.00	30.061 
15:25	90.5	90.5	86.9	21	45.2	1	4	315	0.00	30.061 
15:30	90.5	90.5	86.9	21	45.2	2	4	315	0.00	30.058 
15:35	91.0	91.0	87.4	21	45.6	2	4	292	0.00	30.058 
15:40	91.4	91.4	87.7	20	44.6	1	4	292	0.00	30.058 
15:45	91.6	91.6	87.9	20	44.8	1	4	292	0.00	30.056 
15:50	91.4	91.4	87.8	21	45.9	1	3	292	0.00	30.056 
15:55	91.4	91.4	87.7	20	44.6	1	3	292	0.00	30.056 
16:00	91.8	91.8	88.2	21	46.3	1	6	292	0.00	30.054 
16:05	91.8	91.8	88.1	20	45.0	2	4	270	0.00	30.054 
16:10	91.6	91.6	87.9	20	44.8	1	4	270	0.00	30.054 
16:15	91.8	91.8	88.2	21	46.3	1	3	315	0.00	30.049 
16:20	91.8	91.8	88.1	20	45.0	2	4	292	0.00	30.049 
16:25	92.1	92.1	88.3	19	43.9	1	3	292	0.00	30.049 
16:30	91.8	91.8	88.0	19	43.6	1	3	270	0.00	30.044 
16:35	92.1	92.1	88.3	19	43.9	0	2	270	0.00	30.044 
16:40	91.8	91.8	88.1	20	45.0	1	5	315	0.00	30.044 
16:45	91.6	91.6	87.9	20	44.8	2	3	292	0.00	30.043 
16:50	91.8	91.8	88.1	20	45.0	1	2	338	0.00	30.043 
16:55	92.3	92.3	88.6	20	45.4	1	3	338	0.00	30.043 
17:00	92.3	92.3	88.6	20	45.4	1	5	270	0.00	30.040 
17:05	92.5	92.5	88.8	20	45.5	1	3	270	0.00	30.040 
17:10	92.5	92.5	88.7	19	44.2	1	3	270	0.00	30.040 
17:15	92.7	92.7	88.9	19	44.4	1	3	90	0.00	30.033 
17:20	92.5	92.5	88.7	19	44.2	0	1	90	0.00	30.033 
17:25	92.5	92.5	88.7	19	44.2	1	3	90	0.00	30.033 
17:30	92.3	92.3	88.6	20	45.4	1	3	90	0.00	30.034 
17:35	91.6	91.6	87.8	19	43.5	2	4	270	0.00	30.034 
17:40	91.2	91.2	87.5	20	44.5	2	3	270	0.00	30.034 
17:45	91.0	91.0	87.3	20	44.3	1	4	270	0.00	30.028 
17:50	90.7	90.7	87.0	20	44.1	1	2	270	0.00	30.028 
17:55	90.7	90.7	87.0	20	44.1	0	2	270	0.00	30.028 
18:00	90.7	90.7	87.0	20	44.1	0	1	270	0.00	30.026 
18:05	90.5	90.5	86.8	20	43.9	1	5	270	0.00	30.026 
18:10	90.1	90.1	86.4	20	43.6	1	3	292	0.00	30.026 
18:15	89.9	89.9	86.2	20	43.4	0	2	292	0.00	30.026 
18:20	89.9	89.9	86.2	20	43.4	0	2	292	0.00	30.026 
18:25	89.9	89.9	86.2	20	43.4	1	2	292	0.00	30.026 
18:30	89.9	89.9	86.2	20	43.4	0	1	292	0.00	30.026 
18:35	89.7	89.7	86.2	21	44.5	1	3	292	0.00	30.026 
18:40	89.9	89.9	86.3	21	44.7	0	1	292	0.00	30.026 
18:45	89.9	89.9	86.3	21	44.7	1	3	292	0.00	30.026 
18:50	89.9	89.9	86.2	20	43.4	1	3	292	0.00	30.026 
18:55	90.1	90.1	86.5	21	44.9	0	2	292	0.00	30.026 
19:00	89.9	89.9	86.2	20	43.4	0	1	292	0.00	30.027 
19:05	89.9	89.9	86.5	22	45.9	0	2	292	0.00	30.027 
19:10	89.7	89.7	86.2	21	44.5	0	2	292	0.00	30.027 
19:15	89.9	89.9	86.3	21	44.7	0	1	292	0.00	30.021 
19:20	89.7	89.7	86.2	21	44.5	0	2	292	0.00	30.021 
19:25	89.7	89.7	86.2	21	44.5	0	1	292	0.00	30.021 
19:30	89.5	89.5	86.0	21	44.4	0	2	270	0.00	30.022 
19:35	89.5	89.5	86.0	21	44.4	0	1	270	0.00	30.022 
19:40	89.3	89.3	85.9	22	45.4	0	1	270	0.00	30.022 
19:45	89.3	89.3	85.8	21	44.2	0	1	270	0.00	30.024 
19:50	89.0	89.0	85.6	22	45.2	0	0	---	0.00	30.024 
19:55	88.8	88.8	85.5	23	46.2	0	1	270	0.00	30.024 
20:00	88.4	88.4	85.0	22	44.7	1	3	270	0.00	30.025 
20:05	88.0	88.0	85.0	25	47.7	1	4	270	0.00	30.025 
20:10	87.8	87.8	84.8	25	47.6	1	2	270	0.00	30.025 
20:15	87.4	87.4	84.6	26	48.3	0	3	270	0.00	30.024 
20:20	87.2	87.2	84.4	26	48.1	1	3	292	0.00	30.024 
20:25	87.0	87.0	84.2	26	47.9	1	4	112	0.00	30.024 
20:30	86.5	86.5	83.8	27	48.5	0	1	112	0.00	30.029 
20:35	86.3	86.3	83.8	28	49.3	0	0	---	0.00	30.029 
20:40	85.9	85.9	83.4	28	49.0	0	0	---	0.00	30.029 
20:45	85.5	85.5	83.1	28	48.6	0	0	---	0.00	30.032 
20:50	85.1	85.1	82.8	29	49.2	0	0	---	0.00	30.032 
20:55	84.5	84.5	82.4	30	49.6	0	0	---	0.00	30.032 
21:00	84.0	84.0	82.1	31	50.1	0	0	---	0.00	30.031 
21:05	83.4	83.4	81.7	32	50.4	0	0	---	0.00	30.031 
21:10	82.8	82.8	81.3	33	50.7	0	0	---	0.00	30.031 
21:15	82.4	82.4	81.1	34	51.2	0	0	---	0.00	30.029 
21:20	81.8	81.8	80.8	35	51.4	0	0	---	0.00	30.029 
21:25	81.2	81.2	80.3	35	50.9	0	0	---	0.00	30.029 
21:30	80.9	80.9	80.1	35	50.7	0	0	---	0.00	30.032 
21:35	80.3	80.3	79.8	36	50.9	0	0	---	0.00	30.032 
21:40	80.1	80.1	79.8	37	51.5	0	0	---	0.00	30.032 
21:45	79.8	79.8	79.8	40	53.3	0	0	---	0.00	30.035 
21:50	79.2	79.2	79.4	40	52.8	0	0	---	0.00	30.035 
21:55	78.6	78.6	79.0	40	52.2	0	0	---	0.00	30.035 
22:00	78.3	78.3	78.9	40	52.0	0	0	---	0.00	30.036 
22:05	77.9	77.9	78.7	41	52.3	0	0	---	0.00	30.036 
22:10	77.6	77.6	78.7	43	53.3	0	0	---	0.00	30.036 
22:15	77.2	77.2	78.5	44	53.6	0	0	---	0.00	30.032 
22:20	76.8	76.8	78.3	44	53.2	0	0	---	0.00	30.032 
22:25	76.5	76.5	78.2	46	54.2	0	0	---	0.00	30.032 
22:30	76.5	76.5	78.3	47	54.7	1	4	112	0.00	30.036 
22:35	77.2	77.2	78.6	47	55.4	1	3	112	0.00	30.036 
22:40	77.7	77.7	78.9	47	55.8	1	2	112	0.00	30.036 
22:45	77.7	77.7	78.8	44	54.0	1	2	112	0.00	30.051 
22:50	77.9	77.9	78.9	45	54.8	0	2	112	0.00	30.051 
22:55	77.9	77.9	79.0	46	55.4	0	4	112	0.00	30.051 
23:00	78.1	78.1	79.2	48	56.8	1	2	112	0.00	30.051 
23:05	78.3	78.3	79.3	48	57.0	0	2	112	0.00	30.051 
23:10	78.3	78.3	79.4	49	57.5	0	2	112	0.00	30.051 
23:15	78.1	78.1	79.3	50	57.9	0	0	---	0.00	30.047 
23:20	77.6	77.6	79.0	51	58.0	0	0	---	0.00	30.047 
23:25	77.0	77.0	78.7	52	58.0	0	0	---	0.00	30.047 
23:30	76.5	76.5	78.4	54	58.6	0	0	---	0.00	30.049 
23:35	76.0	76.0	78.1	56	59.2	0	0	---	0.00	30.049 
23:40	75.8	75.8	77.9	58	59.9	0	1	112	0.00	30.049 
23:45	75.6	75.6	77.8	59	60.2	0	2	112	0.00	30.048 
23:50	75.6	75.6	77.8	59	60.2	0	1	112	0.00	30.048 
23:55	75.6	75.6	77.8	59	60.2	1	2	112	0.00	30.048 

CoCoRaHS
IN-AL-39
A2 Web Hosting
Creative Commons License
GoDaddy
search engine by freefind advanced

loaded 2018-11-18 11:53:00 • last modified 2010-11-18 10:43:29
Privacy PolicyDisclaimer
• wx.awcolley.com is powered by PmWiki v.2002016 •
• all content (unless otherwise noted) © 2018 A W Colley